Time;durP1;ratioP1;P1;durP2;ratioP2;P2;SDS_P1;SDS_P2;PMS_P1;PMS_P2;Temp;Humidity;BMP_temperature;BMP_pressure;BME280_temperature;BME280_humidity;BME280_pressure;Samples;Min_cycle;Max_cycle;Signal;HPM_P1;HPM_P2
2023/08/06 00:01:23;;;;;;;;;;;20.00;98.70;;;20.18;62.34;97919.50;4983810;28;123014;-83
2023/08/06 00:03:49;;;;;;;;;;;19.90;98.70;;;20.15;62.58;97920.28;4969214;28;114652;-84
2023/08/06 00:06:15;;;;;;;;;;;19.90;98.80;;;20.13;62.84;97917.06;4975007;28;113673;-83
2023/08/06 00:08:41;;;;;;;;;;;19.90;98.80;;;20.09;63.22;97916.25;4975279;28;124089;-83
2023/08/06 00:11:10;;;;;;;;;;;19.80;98.80;;;20.04;62.87;97908.22;4984656;28;123941;-84
2023/08/06 00:13:36;;;;;;;;;;;19.80;98.90;;;20.00;63.07;97910.25;4992174;28;114355;-87
2023/08/06 00:16:13;;;;;;;;;;;19.80;98.90;;;19.93;62.89;97905.41;4979663;28;113102;-85
2023/08/06 00:18:39;;;;;;;;;;;19.80;98.90;;;19.87;63.23;97904.19;4991654;28;123994;-86
2023/08/06 00:21:06;;;;;;;;;;;19.70;98.80;;;19.80;62.78;97899.38;4974045;28;123987;-86
2023/08/06 00:23:34;;;;;;;;;;;19.60;98.70;;;19.73;62.96;97904.97;4990059;28;115586;-85
2023/08/06 00:26:00;;;;;;;;;;;19.60;98.60;;;19.65;62.90;97898.50;4980655;28;114861;-85
2023/08/06 00:28:26;;;;;;;;;;;19.50;98.50;;;19.59;62.88;97911.28;4980025;28;124585;-87
2023/08/06 00:30:56;;;;;;;;;;;19.40;98.50;;;19.55;63.16;97904.06;4972850;28;123971;-85
2023/08/06 00:33:23;;;;;;;;;;;19.40;98.50;;;19.50;62.88;97907.22;4977333;28;114192;-87
2023/08/06 00:35:49;;;;;;;;;;;19.40;98.50;;;19.45;62.86;97904.81;4971532;28;113750;-88
2023/08/06 00:38:15;;;;;;;;;;;19.40;98.50;;;19.37;62.84;97904.78;4982581;28;124954;-87
2023/08/06 00:40:42;;;;;;;;;;;19.30;98.40;;;19.33;62.85;97903.97;4974458;28;124181;-88
2023/08/06 00:43:08;;;;;;;;;;;19.20;98.30;;;19.28;62.47;97895.94;4978868;28;115049;-87
2023/08/06 00:45:37;;;;;;;;;;;19.20;98.30;;;19.27;62.39;97901.94;4989539;28;114062;-87
2023/08/06 00:48:05;;;;;;;;;;;19.10;98.10;;;19.25;61.98;97902.31;4990892;28;123280;-87
2023/08/06 00:50:31;;;;;;;;;;;19.10;98.10;;;19.24;61.95;97902.72;4990168;28;123817;-87
2023/08/06 00:52:58;;;;;;;;;;;19.10;98.00;;;19.23;62.13;97893.50;4970173;28;114331;-87
2023/08/06 00:55:24;;;;;;;;;;;19.10;98.00;;;19.25;61.36;97890.31;4967622;28;113497;-88
2023/08/06 00:57:52;;;;;;;;;;;19.00;97.90;;;19.24;61.30;97889.53;4986434;28;124277;-87
2023/08/06 01:00:19;;;;;;;;;;;19.10;97.90;;;19.26;61.48;97881.50;4989395;28;123934;-88
2023/08/06 01:02:51;;;;;;;;;;;19.00;97.80;;;19.28;61.43;97876.31;4969030;28;114094;-85
2023/08/06 01:05:17;;;;;;;;;;;19.10;97.80;;;19.28;61.38;97884.72;4980640;28;113874;-84
2023/08/06 01:07:51;;;;;;;;;;;19.00;97.70;;;19.27;61.15;97885.94;4983732;28;124132;-85
2023/08/06 01:10:33;;;;;;;;;;;19.00;97.70;;;19.25;61.24;97870.72;4982158;28;124407;-85
2023/08/06 01:13:17;;;;;;;;;;;19.00;97.60;;;19.22;61.17;97874.31;4983202;28;115422;-86
2023/08/06 01:15:49;;;;;;;;;;;19.00;97.60;;;19.20;61.16;97877.50;4985101;28;115014;-86
2023/08/06 01:18:15;;;;;;;;;;;19.00;97.60;;;19.18;60.93;97875.09;4986588;28;123549;-86
2023/08/06 01:20:44;;;;;;;;;;;18.90;97.50;;;19.19;61.16;97870.28;4984658;28;123742;-86
2023/08/06 01:23:10;;;;;;;;;;;18.90;97.50;;;19.16;60.96;97865.47;4996777;28;114364;-86
2023/08/06 01:25:50;;;;;;;;;;;18.90;97.50;;;19.12;61.07;97870.25;4995049;28;113839;-86
2023/08/06 01:28:42;;;;;;;;;;;18.90;97.50;;;19.06;61.12;97869.03;5004868;28;123907;-85
2023/08/06 01:31:14;;;;;;;;;;;18.90;97.50;;;19.01;61.17;97867.41;4999765;28;123768;-86
2023/08/06 01:33:47;;;;;;;;;;;18.80;97.40;;;18.94;61.26;97868.16;4988375;28;115885;-86
2023/08/06 01:36:15;;;;;;;;;;;18.80;97.50;;;18.89;61.50;97853.75;4971827;28;114066;-85
2023/08/06 01:38:41;;;;;;;;;;;18.70;97.50;;;18.84;61.65;97868.91;4982132;28;123561;-86
2023/08/06 01:41:08;;;;;;;;;;;18.70;97.60;;;18.80;61.80;97865.25;4976506;28;123934;-86
2023/08/06 01:43:34;;;;;;;;;;;18.60;97.60;;;18.77;61.51;97855.66;4991500;28;114667;-86
2023/08/06 01:46:00;;;;;;;;;;;18.60;97.60;;;18.76;61.51;97856.06;4971546;28;113675;-86
2023/08/06 01:48:26;;;;;;;;;;;18.60;97.50;;;18.72;61.06;97858.78;4971795;28;123882;-86
2023/08/06 01:50:53;;;;;;;;;;;18.50;97.30;;;18.68;60.96;97851.59;4981519;28;123947;-89
2023/08/06 01:53:21;;;;;;;;;;;18.50;97.30;;;18.66;60.59;97853.97;4974844;28;115153;-87
2023/08/06 01:55:50;;;;;;;;;;;18.40;97.10;;;18.64;60.33;97847.94;4985986;28;112162;-86
2023/08/06 01:58:17;;;;;;;;;;;18.40;97.00;;;18.62;60.04;97847.53;4974741;28;124242;-86
2023/08/06 02:00:45;;;;;;;;;;;18.40;96.90;;;18.61;59.90;97845.94;4982714;28;124027;-87
2023/08/06 02:03:11;;;;;;;;;;;18.30;96.80;;;18.60;59.75;97844.34;4990048;28;115649;-88
2023/08/06 02:05:38;;;;;;;;;;;18.30;96.80;;;18.58;59.91;97836.31;4988457;28;114428;-89
2023/08/06 02:08:04;;;;;;;;;;;18.30;96.70;;;18.55;59.77;97829.50;4984190;28;123435;-89
2023/08/06 02:10:30;;;;;;;;;;;18.30;96.70;;;18.52;59.98;97833.09;4986581;28;124424;-88
2023/08/06 02:12:56;;;;;;;;;;;18.30;96.70;;;18.48;60.00;97832.28;4973801;28;114678;-88
2023/08/06 02:15:23;;;;;;;;;;;18.20;96.70;;;18.47;60.08;97821.47;4982838;28;113475;-87
2023/08/06 02:17:49;;;;;;;;;;;18.20;96.70;;;18.45;60.10;97821.84;4980952;28;124261;-88
2023/08/06 02:20:18;;;;;;;;;;;18.20;96.70;;;18.43;60.04;97810.25;4972040;28;124151;-88
2023/08/06 02:22:44;;;;;;;;;;;18.20;96.70;;;18.41;60.09;97804.25;4973098;28;115236;-88
2023/08/06 02:25:12;;;;;;;;;;;18.20;96.70;;;18.41;60.15;97809.03;4975205;28;113652;-88
2023/08/06 02:27:41;;;;;;;;;;;18.20;96.70;;;18.40;60.02;97808.22;4999824;28;124048;-87
2023/08/06 02:30:07;;;;;;;;;;;18.20;96.70;;;18.38;60.23;97807.81;4991650;28;123602;-88
2023/08/06 02:32:35;;;;;;;;;;;18.20;96.70;;;18.37;60.00;97806.19;4989318;28;114456;-87
2023/08/06 02:35:02;;;;;;;;;;;18.10;96.60;;;18.35;60.00;97800.22;4990848;28;114730;-88
2023/08/06 02:37:33;;;;;;;;;;;18.10;96.60;;;18.35;59.96;97800.22;4992663;28;124327;-89
2023/08/06 02:39:59;;;;;;;;;;;18.10;96.60;;;18.34;59.99;97798.59;4999227;28;124018;-88
2023/08/06 02:42:26;;;;;;;;;;;18.10;96.60;;;18.34;59.92;97798.59;4994636;28;114342;-87
2023/08/06 02:44:57;;;;;;;;;;;18.10;96.60;;;18.35;59.80;97791.81;4988358;28;113534;-88
2023/08/06 02:47:24;;;;;;;;;;;18.10;96.50;;;18.36;59.85;97801.00;4971990;28;124472;-88
2023/08/06 02:49:50;;;;;;;;;;;18.10;96.50;;;18.31;59.45;97785.38;4997931;28;123112;-89
2023/08/06 02:52:19;;;;;;;;;;;18.10;96.40;;;18.30;59.72;97783.78;4970336;28;115181;-88
2023/08/06 02:54:45;;;;;;;;;;;18.10;96.40;;;18.29;59.69;97782.16;4987131;28;115597;-88
2023/08/06 02:57:11;;;;;;;;;;;18.10;96.50;;;18.29;59.73;97776.56;4984953;28;124911;-88
2023/08/06 02:59:38;;;;;;;;;;;18.10;96.40;;;18.28;59.73;97769.41;5003028;28;123950;-88
2023/08/06 03:02:04;;;;;;;;;;;18.10;96.40;;;18.28;59.68;97772.19;4984018;28;114540;-88
2023/08/06 03:04:31;;;;;;;;;;;18.10;96.40;;;18.27;59.63;97767.81;4989250;28;114599;-87
2023/08/06 03:06:57;;;;;;;;;;;18.00;96.30;;;18.24;59.47;97754.56;4979025;28;124346;-87
2023/08/06 03:09:23;;;;;;;;;;;18.00;96.30;;;18.22;59.38;97763.38;4980683;28;123827;-87
2023/08/06 03:11:49;;;;;;;;;;;18.00;96.30;;;18.20;59.55;97764.94;4983058;28;113449;-84
2023/08/06 03:14:16;;;;;;;;;;;18.00;96.30;;;18.18;59.33;97761.72;4970057;28;114242;-85
2023/08/06 03:16:42;;;;;;;;;;;18.00;96.20;;;18.12;59.80;97757.69;4996302;28;124981;-85
2023/08/06 03:19:08;;;;;;;;;;;17.90;96.20;;;18.08;59.44;97750.09;4989496;28;123663;-88
2023/08/06 03:21:34;;;;;;;;;;;17.90;96.20;;;18.06;59.58;97755.25;4984252;28;114273;-88
2023/08/06 03:24:01;;;;;;;;;;;17.80;96.10;;;18.05;59.32;97747.25;4976219;28;113833;-87
2023/08/06 03:26:27;;;;;;;;;;;17.80;96.10;;;18.04;59.29;97752.03;4978047;28;123712;-87
2023/08/06 03:28:53;;;;;;;;;;;17.80;96.10;;;18.04;59.30;97752.03;4994848;28;124336;-88
2023/08/06 03:31:19;;;;;;;;;;;17.80;96.10;;;18.03;59.22;97761.63;4972092;28;114392;-89
2023/08/06 03:33:46;;;;;;;;;;;17.80;96.00;;;18.03;59.18;97756.03;4980370;28;112810;-88
2023/08/06 03:36:12;;;;;;;;;;;17.80;96.00;;;18.03;59.17;97761.63;4970880;28;124833;-88
2023/08/06 03:38:41;;;;;;;;;;;17.80;96.00;;;18.01;58.94;97758.41;4989437;28;124281;-88
2023/08/06 03:41:07;;;;;;;;;;;17.80;96.00;;;17.96;59.14;97752.38;4974031;28;114904;-88
2023/08/06 03:43:33;;;;;;;;;;;17.70;95.90;;;17.95;59.33;97753.59;4978587;28;113871;-88
2023/08/06 03:45:59;;;;;;;;;;;17.70;96.00;;;17.93;59.20;97751.16;4975569;28;124162;-88
2023/08/06 03:48:28;;;;;;;;;;;17.70;96.00;;;17.92;59.37;97749.56;4974072;28;123883;-88
2023/08/06 03:50:54;;;;;;;;;;;17.70;96.10;;;17.91;59.49;97759.13;4981981;28;114484;-89
2023/08/06 03:53:22;;;;;;;;;;;17.70;96.10;;;17.88;59.52;97760.69;4973016;28;96976;-88
2023/08/06 03:55:49;;;;;;;;;;;17.70;96.10;;;17.88;59.75;97754.31;4988519;28;124154;-88
2023/08/06 03:58:17;;;;;;;;;;;17.60;96.10;;;17.87;59.78;97755.50;4988588;28;123654;-85
2023/08/06 04:00:45;;;;;;;;;;;17.70;96.20;;;17.86;59.74;97762.28;4989740;28;114175;-87
2023/08/06 04:03:12;;;;;;;;;;;17.60;96.20;;;17.87;59.82;97759.09;4981895;28;115854;-87
2023/08/06 04:05:41;;;;;;;;;;;17.60;96.20;;;17.90;59.69;97751.94;4967490;28;125476;-87
2023/08/06 04:08:07;;;;;;;;;;;17.60;96.30;;;17.92;59.81;97755.16;4984893;28;123968;-87
2023/08/06 04:10:33;;;;;;;;;;;17.70;96.30;;;17.95;60.04;97743.19;4989132;28;114396;-87
2023/08/06 04:12:59;;;;;;;;;;;17.70;96.40;;;17.96;60.18;97744.78;4989379;28;114708;-87
2023/08/06 04:15:26;;;;;;;;;;;17.70;96.50;;;18.00;60.17;97756.81;4994998;28;124323;-87
2023/08/06 04:17:52;;;;;;;;;;;17.70;96.60;;;18.03;60.31;97766.44;4986152;28;123799;-88
2023/08/06 04:20:18;;;;;;;;;;;17.70;96.70;;;18.06;60.34;97776.81;4990288;28;113560;-88
2023/08/06 04:22:45;;;;;;;;;;;17.70;96.70;;;18.08;60.39;97783.63;4996073;28;113687;-88
2023/08/06 04:25:11;;;;;;;;;;;17.80;96.80;;;18.11;60.49;97776.47;4984183;28;124307;-87
2023/08/06 04:27:41;;;;;;;;;;;17.80;96.90;;;18.12;60.53;97771.69;4976251;28;123974;-88
2023/08/06 04:30:07;;;;;;;;;;;17.80;97.00;;;18.14;60.52;97772.91;4996633;28;115457;-88
2023/08/06 04:32:34;;;;;;;;;;;17.80;97.00;;;18.14;60.42;97778.47;4985862;28;114332;-87
2023/08/06 04:35:00;;;;;;;;;;;17.80;96.90;;;18.14;60.43;97777.69;4989106;28;124078;-88
2023/08/06 04:37:26;;;;;;;;;;;17.80;96.90;;;18.16;60.48;97775.28;5000530;28;123834;-87
2023/08/06 04:39:52;;;;;;;;;;;17.80;96.90;;;18.16;60.38;97776.09;4985935;28;114400;-87
2023/08/06 04:42:19;;;;;;;;;;;17.80;96.90;;;18.18;60.45;97772.91;4981235;28;113959;-87
2023/08/06 04:44:45;;;;;;;;;;;17.80;96.90;;;18.16;60.51;97769.69;4977729;28;123289;-87
2023/08/06 04:47:13;;;;;;;;;;;17.80;96.90;;;18.14;60.68;97766.50;4977165;28;123819;-87
2023/08/06 04:49:40;;;;;;;;;;;17.80;97.00;;;18.08;60.78;97772.44;4988713;28;114446;-87
2023/08/06 04:52:08;;;;;;;;;;;17.80;97.00;;;18.05;60.93;97781.63;4968304;28;113888;-87
2023/08/06 04:54:37;;;;;;;;;;;17.80;97.10;;;18.02;61.14;97782.38;4981244;28;124884;-87
2023/08/06 04:57:03;;;;;;;;;;;17.80;97.20;;;18.01;61.38;97771.59;4991977;28;123305;-87
2023/08/06 04:59:30;;;;;;;;;;;17.80;97.20;;;17.99;61.57;97782.34;5010266;28;114261;-87
2023/08/06 05:01:56;;;;;;;;;;;17.80;97.30;;;17.95;61.65;97787.91;4983518;28;114193;-88
2023/08/06 05:04:22;;;;;;;;;;;17.70;97.30;;;17.94;61.58;97791.09;4979005;28;123782;-88
2023/08/06 05:06:48;;;;;;;;;;;17.70;97.40;;;17.93;61.64;97787.50;4978511;28;124343;-88
2023/08/06 05:09:15;;;;;;;;;;;17.70;97.40;;;17.92;61.44;97788.69;4981338;28;114450;-88
2023/08/06 05:11:41;;;;;;;;;;;17.70;97.40;;;17.90;61.42;97779.88;4970046;28;112613;-87
2023/08/06 05:14:07;;;;;;;;;;;17.60;97.40;;;17.89;61.65;97778.25;4984693;28;123851;-87
2023/08/06 05:16:36;;;;;;;;;;;17.70;97.40;;;17.92;61.72;97785.91;4968002;28;123819;-88
2023/08/06 05:19:02;;;;;;;;;;;17.70;97.40;;;17.95;61.60;97776.75;4979292;28;115695;-88
2023/08/06 05:21:29;;;;;;;;;;;17.70;97.50;;;18.00;61.58;97778.34;4970193;28;113633;-87
2023/08/06 05:23:55;;;;;;;;;;;17.70;97.50;;;18.00;61.29;97778.34;4991026;28;124258;-88
2023/08/06 05:26:21;;;;;;;;;;;17.70;97.50;;;18.01;61.43;97772.38;4988336;28;124231;-88
2023/08/06 05:28:50;;;;;;;;;;;17.70;97.40;;;18.03;61.56;97777.59;4986809;28;114535;-87
2023/08/06 05:31:16;;;;;;;;;;;17.70;97.40;;;18.04;61.44;97780.00;4974718;28;113738;-87
2023/08/06 05:33:42;;;;;;;;;;;17.70;97.40;;;18.08;61.53;97780.84;4987987;28;124110;-88
2023/08/06 05:36:08;;;;;;;;;;;17.80;97.50;;;18.12;61.44;97788.44;4987866;28;124341;-88
2023/08/06 05:38:35;;;;;;;;;;;17.80;97.50;;;18.17;61.43;97785.28;4993097;28;114503;-88
2023/08/06 05:41:03;;;;;;;;;;;17.80;97.50;;;18.21;61.18;97788.91;4992666;28;113536;-87
2023/08/06 05:43:30;;;;;;;;;;;17.80;97.50;;;18.26;61.08;97785.75;4993888;28;124006;-88
2023/08/06 05:45:56;;;;;;;;;;;17.90;97.50;;;18.28;61.04;97788.97;4992861;28;124397;-88
2023/08/06 05:48:24;;;;;;;;;;;17.90;97.50;;;18.28;61.06;97786.16;4989844;28;114430;-87
2023/08/06 05:50:52;;;;;;;;;;;18.00;97.50;;;18.27;61.22;97793.75;4977115;28;113931;-87
2023/08/06 05:53:18;;;;;;;;;;;17.90;97.40;;;18.29;61.18;97790.56;4976280;28;123427;-87
2023/08/06 05:55:45;;;;;;;;;;;18.00;97.50;;;18.28;60.62;97791.75;4987308;28;123846;-87
2023/08/06 05:58:11;;;;;;;;;;;17.90;97.30;;;18.26;60.81;97794.13;4971259;28;114641;-87
2023/08/06 06:00:37;;;;;;;;;;;17.90;97.20;;;18.23;60.66;97800.50;4985643;28;113653;-87
2023/08/06 06:03:03;;;;;;;;;;;17.90;97.10;;;18.18;60.49;97803.66;4987350;28;124124;-87
2023/08/06 06:05:30;;;;;;;;;;;17.90;97.10;;;18.14;60.34;97805.66;4989128;28;123863;-87
2023/08/06 06:07:56;;;;;;;;;;;17.80;96.90;;;18.11;59.96;97812.81;4997346;28;115319;-87
2023/08/06 06:10:22;;;;;;;;;;;17.80;96.70;;;18.04;59.75;97821.13;4976341;28;114554;-86
2023/08/06 06:12:48;;;;;;;;;;;17.70;96.70;;;17.98;60.10;97815.09;4970996;28;124148;-87
2023/08/06 06:15:15;;;;;;;;;;;17.60;96.80;;;17.93;60.21;97811.84;4992289;28;122938;-87
2023/08/06 06:17:41;;;;;;;;;;;17.60;96.90;;;17.90;60.36;97813.41;4986091;28;114355;-87
2023/08/06 06:20:07;;;;;;;;;;;17.60;96.90;;;17.83;60.35;97819.72;4986801;28;113836;-87
2023/08/06 06:22:34;;;;;;;;;;;17.50;96.90;;;17.78;60.69;97822.84;4992336;28;124284;-87
2023/08/06 06:25:00;;;;;;;;;;;17.50;97.00;;;17.75;60.86;97818.03;4982967;28;123867;-87
2023/08/06 06:27:28;;;;;;;;;;;17.50;97.00;;;17.72;60.95;97806.84;5000452;28;114336;-87
2023/08/06 06:29:55;;;;;;;;;;;17.40;97.00;;;17.71;60.92;97822.00;4992972;28;114034;-88
2023/08/06 06:32:21;;;;;;;;;;;17.40;97.00;;;17.69;60.94;97827.16;4983269;28;124788;-87
2023/08/06 06:34:50;;;;;;;;;;;17.40;97.10;;;17.66;61.06;97835.13;4991067;28;124408;-87
2023/08/06 06:37:19;;;;;;;;;;;17.40;97.10;;;17.66;61.28;97832.31;4979988;28;114446;-87
2023/08/06 06:39:45;;;;;;;;;;;17.40;97.10;;;17.65;61.06;97827.94;4998748;28;114318;-87
2023/08/06 06:42:11;;;;;;;;;;;17.40;97.10;;;17.68;61.03;97826.34;4994034;28;124307;-86
2023/08/06 06:44:40;;;;;;;;;;;17.40;97.10;;;17.67;60.99;97833.91;5003050;28;123881;-86
2023/08/06 06:47:06;;;;;;;;;;;17.40;97.20;;;17.69;60.95;97829.94;4968513;28;114170;-87
2023/08/06 06:49:33;;;;;;;;;;;17.40;97.20;;;17.70;60.81;97828.75;5001588;28;113755;-88
2023/08/06 06:52:01;;;;;;;;;;;17.30;97.10;;;17.72;60.76;97829.19;4983241;28;124999;-83
2023/08/06 06:54:27;;;;;;;;;;;17.40;97.20;;;17.75;60.67;97829.22;4979188;28;123955;-87
2023/08/06 06:56:53;;;;;;;;;;;17.40;97.10;;;17.76;60.53;97830.84;4985347;28;115312;-87
2023/08/06 06:59:20;;;;;;;;;;;17.40;97.40;;;17.77;60.87;97840.00;4982409;28;114758;-87
2023/08/06 07:01:46;;;;;;;;;;;17.40;97.20;;;17.77;60.94;97831.63;4973213;28;124361;-86
2023/08/06 07:04:12;;;;;;;;;;;17.40;97.30;;;17.79;61.16;97826.50;4982384;28;124372;-85
2023/08/06 07:06:38;;;;;;;;;;;17.40;97.30;;;17.80;61.10;97833.69;4968547;28;113703;-85
2023/08/06 07:09:05;;;;;;;;;;;17.50;97.40;;;17.81;61.21;97833.31;4985708;28;114102;-84
2023/08/06 07:11:31;;;;;;;;;;;17.50;97.50;;;17.81;61.28;97838.06;4984482;28;124283;-83
2023/08/06 07:14:01;;;;;;;;;;;17.50;97.40;;;17.79;61.10;97841.25;4957272;28;123385;-83
2023/08/06 07:16:28;;;;;;;;;;;17.40;97.40;;;17.77;61.47;97829.63;4985075;28;114115;-84
2023/08/06 07:18:54;;;;;;;;;;;17.40;97.50;;;17.76;61.72;97836.41;4998777;28;113685;-85
2023/08/06 07:21:26;;;;;;;;;;;17.40;97.70;;;17.76;62.00;97841.19;5005869;28;124400;-87
2023/08/06 07:23:52;;;;;;;;;;;17.40;97.80;;;17.75;62.31;97845.16;4986791;28;123548;-85
2023/08/06 07:26:18;;;;;;;;;;;17.40;97.90;;;17.72;62.66;97843.16;4984257;28;115452;-87
2023/08/06 07:28:45;;;;;;;;;;;17.40;98.00;;;17.69;62.83;97857.88;5002867;28;113775;-86
2023/08/06 07:31:13;;;;;;;;;;;17.40;98.20;;;17.65;63.24;97855.03;4972533;28;125053;-87
2023/08/06 07:33:40;;;;;;;;;;;17.30;98.40;;;17.62;63.63;97853.00;4983505;28;124068;-85
2023/08/06 07:36:12;;;;;;;;;;;17.30;98.50;;;17.56;63.67;97854.56;4989972;28;114580;-87
2023/08/06 07:38:41;;;;;;;;;;;17.30;98.60;;;17.53;64.11;97847.75;4980394;28;114326;-86
2023/08/06 07:41:09;;;;;;;;;;;17.20;98.80;;;17.51;64.05;97858.47;4988885;28;124153;-86
2023/08/06 07:43:38;;;;;;;;;;;17.20;99.00;;;17.49;64.18;97849.69;4991804;28;124303;-87
2023/08/06 07:46:06;;;;;;;;;;;17.20;98.90;;;17.49;63.88;97852.50;4973713;28;114672;-86
2023/08/06 07:48:32;;;;;;;;;;;17.10;98.90;;;17.45;63.81;97849.66;4991484;28;117117;-87
2023/08/06 07:51:02;;;;;;;;;;;17.10;98.90;;;17.43;64.08;97845.63;4976216;28;124185;-86
2023/08/06 07:53:29;;;;;;;;;;;17.10;98.90;;;17.44;64.14;97841.66;4980244;28;124352;-86
2023/08/06 07:55:55;;;;;;;;;;;17.10;99.00;;;17.48;64.13;97848.06;4974941;28;114194;-86
2023/08/06 07:58:23;;;;;;;;;;;17.10;99.00;;;17.51;64.11;97846.50;4979917;28;114379;-86
2023/08/06 08:00:49;;;;;;;;;;;17.20;99.10;;;17.54;63.81;97851.31;4975360;28;124067;-86
2023/08/06 08:03:16;;;;;;;;;;;17.20;99.00;;;17.58;63.93;97846.59;4960269;28;123437;-87
2023/08/06 08:05:43;;;;;;;;;;;17.20;99.00;;;17.63;64.05;97860.22;4975218;28;114313;-84
2023/08/06 08:08:10;;;;;;;;;;;17.20;99.10;;;17.65;64.00;97850.28;4981828;28;113841;-87
2023/08/06 08:10:38;;;;;;;;;;;17.30;99.10;;;17.68;64.00;97851.50;4975344;28;124511;-86
2023/08/06 08:13:05;;;;;;;;;;;18.20;99.40;;;17.69;63.88;97853.09;4978977;28;122980;-85
2023/08/06 08:15:32;;;;;;;;;;;17.30;99.10;;;17.67;63.75;97855.47;4974687;28;114986;-86
2023/08/06 08:17:58;;;;;;;;;;;17.40;99.00;;;17.70;63.65;97843.53;4982704;28;113874;-85
2023/08/06 08:20:31;;;;;;;;;;;17.40;99.00;;;17.77;63.66;97851.97;4984036;28;124802;-86
2023/08/06 08:23:01;;;;;;;;;;;17.40;99.00;;;17.82;63.42;97842.50;4978630;28;123256;-87
2023/08/06 08:25:28;;;;;;;;;;;17.40;99.00;;;17.84;63.45;97848.50;4980012;28;115016;-86
2023/08/06 08:27:55;;;;;;;;;;;17.40;99.00;;;17.87;63.50;97842.94;4972639;28;113612;-86
2023/08/06 08:30:22;;;;;;;;;;;17.50;99.00;;;17.94;63.28;97845.00;4987107;28;124200;-87
2023/08/06 08:32:49;;;;;;;;;;;17.50;99.00;;;18.03;63.31;97845.50;4970425;28;123904;-87
2023/08/06 08:35:15;;;;;;;;;;;17.50;99.00;;;18.13;63.21;97843.16;4984494;28;115403;-83
2023/08/06 08:37:43;;;;;;;;;;;17.60;98.90;;;18.19;62.74;97842.44;4982381;28;115019;-85
2023/08/06 08:40:10;;;;;;;;;;;17.70;98.80;;;18.24;62.48;97850.47;4986128;28;124766;-82
2023/08/06 08:42:37;;;;;;;;;;;17.70;98.80;;;18.26;62.38;97842.47;4974871;28;124590;-95
2023/08/06 08:45:04;;;;;;;;;;;17.80;98.60;;;18.28;61.89;97844.91;4973721;28;113503;-88
2023/08/06 08:47:31;;;;;;;;;;;17.80;98.30;;;18.28;61.69;97839.31;4977468;28;113311;-85
2023/08/06 08:50:00;;;;;;;;;;;17.80;98.20;;;18.29;61.64;97838.91;4991482;28;124246;-86
2023/08/06 08:52:30;;;;;;;;;;;17.90;98.20;;;18.28;61.36;97847.69;4975562;28;123670;-86
2023/08/06 08:54:56;;;;;;;;;;;17.80;98.00;;;18.27;61.29;97846.91;4981845;28;114376;-85
2023/08/06 08:57:22;;;;;;;;;;;17.80;97.90;;;18.26;61.04;97844.47;4955337;28;112537;-84
2023/08/06 08:59:50;;;;;;;;;;;17.90;97.80;;;18.23;60.76;97850.84;4994833;28;124571;-82
2023/08/06 09:02:16;;;;;;;;;;;17.80;97.60;;;18.19;60.94;97853.63;4975708;28;123078;-84
2023/08/06 09:04:43;;;;;;;;;;;17.80;97.70;;;18.20;61.79;97852.41;4971502;28;115117;-86
2023/08/06 09:07:12;;;;;;;;;;;17.80;98.00;;;18.20;62.23;97854.41;4971879;28;113797;-86
2023/08/06 09:09:39;;;;;;;;;;;17.80;98.30;;;18.17;62.65;97849.59;4981384;28;124431;-85
2023/08/06 09:12:17;;;;;;;;;;;17.80;98.50;;;18.15;62.78;97843.59;4969221;28;123985;-84
2023/08/06 09:14:44;;;;;;;;;;;17.80;98.50;;;18.14;62.83;97853.97;4973533;28;114634;-83
2023/08/06 09:17:10;;;;;;;;;;;17.80;98.50;;;18.16;62.78;97859.16;4968339;28;113903;-85
2023/08/06 09:19:39;;;;;;;;;;;17.80;98.60;;;18.20;62.82;97860.00;4989871;28;124262;-83
2023/08/06 09:22:10;;;;;;;;;;;17.80;98.60;;;18.25;62.72;97857.66;4976953;28;124280;-81
2023/08/06 09:24:39;;;;;;;;;;;17.80;98.60;;;18.29;62.38;97847.28;4968329;28;115578;-87
2023/08/06 09:27:05;;;;;;;;;;;17.90;98.60;;;18.34;62.38;97837.75;4973266;28;114100;-83
2023/08/06 09:29:32;;;;;;;;;;;17.90;98.50;;;18.37;62.25;97848.16;4970822;28;124176;-82
2023/08/06 09:31:59;;;;;;;;;;;18.00;98.50;;;18.44;62.34;97859.41;4966186;28;123896;-85
2023/08/06 09:34:27;;;;;;;;;;;18.00;98.50;;;18.51;62.21;97858.63;4983265;28;114250;-85
2023/08/06 09:36:54;;;;;;;;;;;18.10;98.50;;;18.59;61.56;97873.47;4969871;28;113754;-85
2023/08/06 09:39:30;;;;;;;;;;;18.10;98.30;;;18.57;61.22;97857.09;4969633;28;124757;-85
2023/08/06 09:41:58;;;;;;;;;;;18.10;98.20;;;18.59;61.61;97859.50;4967785;28;123882;-86
2023/08/06 09:44:26;;;;;;;;;;;18.10;98.20;;;18.57;61.69;97867.50;4975104;28;114123;-87
2023/08/06 09:46:57;;;;;;;;;;;18.20;98.30;;;18.56;61.88;97852.69;4986159;28;113947;-86
2023/08/06 09:49:32;;;;;;;;;;;18.20;98.30;;;18.55;61.47;97865.06;4972449;28;124418;-84
2023/08/06 09:51:59;;;;;;;;;;;18.20;98.10;;;18.53;61.51;97857.06;4970611;28;123823;-86
2023/08/06 09:54:27;;;;;;;;;;;18.20;98.00;;;18.55;61.50;97854.69;4975446;28;114535;-83
2023/08/06 09:56:56;;;;;;;;;;;18.20;98.00;;;18.57;61.28;97868.28;4985525;28;113132;-83
2023/08/06 09:59:25;;;;;;;;;;;18.20;97.90;;;18.55;61.00;97871.47;4971339;28;124807;-86
2023/08/06 10:01:54;;;;;;;;;;;18.20;97.90;;;18.54;60.87;97872.66;4968884;28;124082;-85
2023/08/06 10:04:20;;;;;;;;;;;18.20;97.70;;;18.52;61.10;97877.03;4980975;28;114695;-82
2023/08/06 10:06:50;;;;;;;;;;;18.20;97.80;;;18.51;61.62;97870.66;4985439;28;114330;-83
2023/08/06 10:09:18;;;;;;;;;;;18.20;98.00;;;18.52;61.82;97882.63;4977974;28;124498;-86
2023/08/06 10:11:49;;;;;;;;;;;18.20;98.20;;;18.50;61.83;97885.81;4974123;28;123146;-84
2023/08/06 10:14:30;;;;;;;;;;;18.10;98.10;;;18.46;62.43;97890.59;4970078;28;115073;-85
2023/08/06 10:17:00;;;;;;;;;;;18.10;98.30;;;18.41;62.84;97881.75;4981965;28;114607;-85
2023/08/06 10:19:27;;;;;;;;;;;18.10;98.60;;;18.39;63.02;97890.53;4987541;28;124080;-85
2023/08/06 10:22:13;;;;;;;;;;;18.10;98.80;;;18.36;63.84;97885.72;4972971;28;122981;-83
2023/08/06 10:24:52;;;;;;;;;;;18.10;99.10;;;18.33;64.25;97886.47;4972309;28;114828;-87
2023/08/06 10:27:28;;;;;;;;;;;18.10;99.20;;;18.29;64.18;97896.81;4975873;28;114300;-86
2023/08/06 10:29:54;;;;;;;;;;;18.00;99.60;;;18.25;64.66;97896.00;4980519;28;125049;-86
2023/08/06 10:32:21;;;;;;;;;;;18.00;99.50;;;18.21;64.89;97892.34;4971964;28;124246;-85
2023/08/06 10:34:58;;;;;;;;;;;17.90;99.70;;;18.19;65.14;97900.31;4990871;28;114750;-84
2023/08/06 10:37:35;;;;;;;;;;;17.90;99.90;;;18.17;64.91;97895.13;4977748;28;113735;-85
2023/08/06 10:40:01;;;;;;;;;;;17.90;99.80;;;18.17;64.56;97916.69;4994532;28;124128;-87
2023/08/06 10:42:28;;;;;;;;;;;17.80;99.50;;;18.16;64.58;97889.91;4974299;28;123178;-88
2023/08/06 10:45:15;;;;;;;;;;;17.80;99.70;;;18.20;65.20;97887.97;4961151;28;113266;-84
2023/08/06 10:47:44;;;;;;;;;;;17.80;99.90;;;18.28;65.24;97900.81;4980180;28;113951;-84
2023/08/06 10:50:16;;;;;;;;;;;17.90;99.90;;;18.35;65.24;97891.66;4980611;28;124277;-86
2023/08/06 10:52:47;;;;;;;;;;;17.90;99.90;;;18.36;64.95;97894.09;4976726;28;124466;-85
2023/08/06 10:55:14;;;;;;;;;;;18.00;99.90;;;18.37;65.02;97898.50;4959422;28;113499;-84
2023/08/06 10:57:40;;;;;;;;;;;18.00;99.90;;;18.38;64.41;97902.13;4974414;28;113648;-83
2023/08/06 11:00:08;;;;;;;;;;;18.00;99.80;;;18.39;64.36;97906.50;4971065;28;124520;-83
2023/08/06 11:02:35;;;;;;;;;;;18.00;99.70;;;18.40;64.11;97927.69;4982389;28;123949;-85
2023/08/06 11:05:06;;;;;;;;;;;18.00;99.60;;;18.35;63.92;97914.03;4968147;28;115541;-85
2023/08/06 11:07:33;;;;;;;;;;;18.00;99.40;;;18.33;63.66;97922.84;4987997;28;115310;-85
2023/08/06 11:10:07;;;;;;;;;;;18.00;99.30;;;18.26;62.62;97937.53;4984708;28;124444;-85
2023/08/06 11:12:34;;;;;;;;;;;17.90;98.50;;;18.20;61.71;97927.91;5010184;28;124246;-85